sensor_id;sensor_type;location;lat;lon;timestamp;P1;durP1;ratioP1;P2;durP2;ratioP2
58238;SDS011;44037;55.638;37.356;2023-08-12T00:02:16;24.85;;;16.33;;
58238;SDS011;44037;55.638;37.356;2023-08-12T00:04:45;22.73;;;16.60;;
58238;SDS011;44037;55.638;37.356;2023-08-12T00:07:12;21.73;;;15.38;;
58238;SDS011;44037;55.638;37.356;2023-08-12T00:09:39;26.60;;;16.70;;
58238;SDS011;44037;55.638;37.356;2023-08-12T00:12:06;23.75;;;17.30;;
58238;SDS011;44037;55.638;37.356;2023-08-12T00:14:33;29.63;;;16.67;;
58238;SDS011;44037;55.638;37.356;2023-08-12T00:17:02;19.25;;;15.05;;
58238;SDS011;44037;55.638;37.356;2023-08-12T00:19:29;23.85;;;15.55;;
58238;SDS011;44037;55.638;37.356;2023-08-12T00:21:56;18.15;;;14.07;;
58238;SDS011;44037;55.638;37.356;2023-08-12T00:24:23;18.23;;;14.13;;
58238;SDS011;44037;55.638;37.356;2023-08-12T00:26:50;19.52;;;13.85;;
58238;SDS011;44037;55.638;37.356;2023-08-12T00:29:17;22.35;;;15.25;;
58238;SDS011;44037;55.638;37.356;2023-08-12T00:31:44;22.10;;;14.70;;
58238;SDS011;44037;55.638;37.356;2023-08-12T00:34:13;22.48;;;15.70;;
58238;SDS011;44037;55.638;37.356;2023-08-12T00:36:40;19.40;;;14.60;;
58238;SDS011;44037;55.638;37.356;2023-08-12T00:39:07;21.92;;;14.88;;
58238;SDS011;44037;55.638;37.356;2023-08-12T00:41:34;22.58;;;15.77;;
58238;SDS011;44037;55.638;37.356;2023-08-12T00:44:01;20.92;;;14.63;;
58238;SDS011;44037;55.638;37.356;2023-08-12T00:46:28;21.27;;;14.73;;
58238;SDS011;44037;55.638;37.356;2023-08-12T00:48:55;19.73;;;14.25;;
58238;SDS011;44037;55.638;37.356;2023-08-12T00:51:24;20.23;;;14.05;;
58238;SDS011;44037;55.638;37.356;2023-08-12T00:53:52;16.63;;;14.38;;
58238;SDS011;44037;55.638;37.356;2023-08-12T00:56:20;20.13;;;14.75;;
58238;SDS011;44037;55.638;37.356;2023-08-12T00:58:48;23.25;;;13.80;;
58238;SDS011;44037;55.638;37.356;2023-08-12T01:01:15;21.73;;;15.32;;
58238;SDS011;44037;55.638;37.356;2023-08-12T01:03:43;18.63;;;14.13;;
58238;SDS011;44037;55.638;37.356;2023-08-12T01:06:10;17.95;;;14.60;;
58238;SDS011;44037;55.638;37.356;2023-08-12T01:08:38;20.83;;;15.27;;
58238;SDS011;44037;55.638;37.356;2023-08-12T01:11:10;20.10;;;15.02;;
58238;SDS011;44037;55.638;37.356;2023-08-12T01:13:45;18.40;;;14.32;;
58238;SDS011;44037;55.638;37.356;2023-08-12T01:16:16;16.88;;;13.38;;
58238;SDS011;44037;55.638;37.356;2023-08-12T01:18:45;18.88;;;12.25;;
58238;SDS011;44037;55.638;37.356;2023-08-12T01:21:15;17.83;;;14.18;;
58238;SDS011;44037;55.638;37.356;2023-08-12T01:23:44;16.90;;;14.25;;
58238;SDS011;44037;55.638;37.356;2023-08-12T01:26:12;18.38;;;13.55;;
58238;SDS011;44037;55.638;37.356;2023-08-12T01:28:39;19.38;;;13.13;;
58238;SDS011;44037;55.638;37.356;2023-08-12T01:31:08;20.17;;;12.63;;
58238;SDS011;44037;55.638;37.356;2023-08-12T01:33:42;16.10;;;12.63;;
58238;SDS011;44037;55.638;37.356;2023-08-12T01:36:15;19.40;;;12.35;;
58238;SDS011;44037;55.638;37.356;2023-08-12T01:38:45;20.17;;;14.00;;
58238;SDS011;44037;55.638;37.356;2023-08-12T01:41:13;17.27;;;13.50;;
58238;SDS011;44037;55.638;37.356;2023-08-12T01:43:42;20.67;;;13.40;;
58238;SDS011;44037;55.638;37.356;2023-08-12T01:46:09;14.70;;;12.52;;
58238;SDS011;44037;55.638;37.356;2023-08-12T01:48:37;20.08;;;12.70;;
58238;SDS011;44037;55.638;37.356;2023-08-12T01:51:04;21.05;;;13.65;;
58238;SDS011;44037;55.638;37.356;2023-08-12T01:53:31;17.85;;;14.52;;
58238;SDS011;44037;55.638;37.356;2023-08-12T01:55:59;25.23;;;14.13;;
58238;SDS011;44037;55.638;37.356;2023-08-12T01:58:26;16.85;;;12.88;;
58238;SDS011;44037;55.638;37.356;2023-08-12T02:00:53;15.85;;;14.10;;
58238;SDS011;44037;55.638;37.356;2023-08-12T02:03:20;18.20;;;13.38;;
58238;SDS011;44037;55.638;37.356;2023-08-12T02:05:47;20.25;;;13.63;;
58238;SDS011;44037;55.638;37.356;2023-08-12T02:08:14;19.90;;;14.10;;
58238;SDS011;44037;55.638;37.356;2023-08-12T02:10:41;14.82;;;13.00;;
58238;SDS011;44037;55.638;37.356;2023-08-12T02:13:10;20.35;;;13.75;;
58238;SDS011;44037;55.638;37.356;2023-08-12T02:15:37;20.58;;;13.68;;
58238;SDS011;44037;55.638;37.356;2023-08-12T02:18:05;20.30;;;13.70;;
58238;SDS011;44037;55.638;37.356;2023-08-12T02:20:32;17.77;;;14.23;;
58238;SDS011;44037;55.638;37.356;2023-08-12T02:22:59;21.25;;;14.25;;
58238;SDS011;44037;55.638;37.356;2023-08-12T02:25:26;17.13;;;13.35;;
58238;SDS011;44037;55.638;37.356;2023-08-12T02:27:53;15.05;;;13.43;;
58238;SDS011;44037;55.638;37.356;2023-08-12T02:30:22;16.88;;;13.77;;
58238;SDS011;44037;55.638;37.356;2023-08-12T02:32:49;18.17;;;13.85;;
58238;SDS011;44037;55.638;37.356;2023-08-12T02:35:17;23.42;;;14.15;;
58238;SDS011;44037;55.638;37.356;2023-08-12T02:37:45;23.23;;;15.25;;
58238;SDS011;44037;55.638;37.356;2023-08-12T02:40:14;16.70;;;14.18;;
58238;SDS011;44037;55.638;37.356;2023-08-12T02:42:41;15.45;;;13.88;;
58238;SDS011;44037;55.638;37.356;2023-08-12T02:45:08;17.65;;;13.43;;
58238;SDS011;44037;55.638;37.356;2023-08-12T02:47:37;17.77;;;14.52;;
58238;SDS011;44037;55.638;37.356;2023-08-12T02:50:05;18.73;;;14.10;;
58238;SDS011;44037;55.638;37.356;2023-08-12T02:52:33;19.13;;;13.95;;
58238;SDS011;44037;55.638;37.356;2023-08-12T02:55:00;21.27;;;13.88;;
58238;SDS011;44037;55.638;37.356;2023-08-12T02:57:29;18.90;;;14.00;;
58238;SDS011;44037;55.638;37.356;2023-08-12T02:59:56;18.15;;;14.23;;
58238;SDS011;44037;55.638;37.356;2023-08-12T03:02:23;19.42;;;14.95;;
58238;SDS011;44037;55.638;37.356;2023-08-12T03:04:51;20.73;;;13.80;;
58238;SDS011;44037;55.638;37.356;2023-08-12T03:07:19;20.23;;;15.07;;
58238;SDS011;44037;55.638;37.356;2023-08-12T03:09:46;19.35;;;14.77;;
58238;SDS011;44037;55.638;37.356;2023-08-12T03:12:13;18.52;;;13.93;;
58238;SDS011;44037;55.638;37.356;2023-08-12T03:14:40;19.30;;;13.88;;
58238;SDS011;44037;55.638;37.356;2023-08-12T03:17:07;18.70;;;13.82;;
58238;SDS011;44037;55.638;37.356;2023-08-12T03:19:35;19.83;;;13.95;;
58238;SDS011;44037;55.638;37.356;2023-08-12T03:22:04;21.33;;;14.40;;
58238;SDS011;44037;55.638;37.356;2023-08-12T03:24:31;16.10;;;13.45;;
58238;SDS011;44037;55.638;37.356;2023-08-12T03:26:58;17.10;;;13.82;;
58238;SDS011;44037;55.638;37.356;2023-08-12T03:29:26;16.63;;;13.93;;
58238;SDS011;44037;55.638;37.356;2023-08-12T03:31:53;21.25;;;14.75;;
58238;SDS011;44037;55.638;37.356;2023-08-12T03:34:20;22.08;;;14.05;;
58238;SDS011;44037;55.638;37.356;2023-08-12T03:36:47;18.70;;;13.95;;
58238;SDS011;44037;55.638;37.356;2023-08-12T03:39:19;15.05;;;12.88;;
58238;SDS011;44037;55.638;37.356;2023-08-12T03:41:46;17.40;;;14.10;;
58238;SDS011;44037;55.638;37.356;2023-08-12T03:44:15;18.25;;;13.63;;
58238;SDS011;44037;55.638;37.356;2023-08-12T03:46:42;20.35;;;12.90;;
58238;SDS011;44037;55.638;37.356;2023-08-12T03:49:09;15.23;;;13.45;;
58238;SDS011;44037;55.638;37.356;2023-08-12T03:51:36;18.23;;;13.45;;
58238;SDS011;44037;55.638;37.356;2023-08-12T03:54:03;16.10;;;13.40;;
58238;SDS011;44037;55.638;37.356;2023-08-12T03:56:32;18.40;;;13.43;;
58238;SDS011;44037;55.638;37.356;2023-08-12T03:58:59;20.13;;;14.65;;
58238;SDS011;44037;55.638;37.356;2023-08-12T04:01:27;18.88;;;12.93;;
58238;SDS011;44037;55.638;37.356;2023-08-12T04:03:54;21.25;;;13.70;;
58238;SDS011;44037;55.638;37.356;2023-08-12T04:06:21;15.23;;;11.93;;
58238;SDS011;44037;55.638;37.356;2023-08-12T04:08:48;18.45;;;14.05;;
58238;SDS011;44037;55.638;37.356;2023-08-12T04:11:15;15.70;;;13.95;;
58238;SDS011;44037;55.638;37.356;2023-08-12T04:13:44;18.17;;;13.27;;
58238;SDS011;44037;55.638;37.356;2023-08-12T04:16:11;17.83;;;13.85;;
58238;SDS011;44037;55.638;37.356;2023-08-12T04:18:39;16.48;;;12.63;;
58238;SDS011;44037;55.638;37.356;2023-08-12T04:21:06;15.77;;;12.95;;
58238;SDS011;44037;55.638;37.356;2023-08-12T04:23:33;21.48;;;14.75;;
58238;SDS011;44037;55.638;37.356;2023-08-12T04:26:00;17.08;;;14.00;;
58238;SDS011;44037;55.638;37.356;2023-08-12T04:28:28;16.90;;;12.98;;
58238;SDS011;44037;55.638;37.356;2023-08-12T04:30:56;15.63;;;13.70;;
58238;SDS011;44037;55.638;37.356;2023-08-12T04:33:24;16.00;;;12.60;;
58238;SDS011;44037;55.638;37.356;2023-08-12T04:35:52;18.13;;;13.38;;
58238;SDS011;44037;55.638;37.356;2023-08-12T04:38:19;13.65;;;12.10;;
58238;SDS011;44037;55.638;37.356;2023-08-12T04:40:46;20.00;;;13.55;;
58238;SDS011;44037;55.638;37.356;2023-08-12T04:43:13;14.90;;;11.77;;
58238;SDS011;44037;55.638;37.356;2023-08-12T04:45:44;18.80;;;12.30;;
58238;SDS011;44037;55.638;37.356;2023-08-12T04:48:13;16.60;;;11.77;;
58238;SDS011;44037;55.638;37.356;2023-08-12T04:50:41;17.05;;;13.75;;
58238;SDS011;44037;55.638;37.356;2023-08-12T04:53:08;16.73;;;13.43;;
58238;SDS011;44037;55.638;37.356;2023-08-12T04:55:35;17.48;;;13.10;;
58238;SDS011;44037;55.638;37.356;2023-08-12T04:58:03;16.98;;;12.57;;
58238;SDS011;44037;55.638;37.356;2023-08-12T05:00:31;16.73;;;12.35;;
58238;SDS011;44037;55.638;37.356;2023-08-12T05:02:58;14.52;;;12.90;;
58238;SDS011;44037;55.638;37.356;2023-08-12T05:05:26;16.23;;;12.68;;
58238;SDS011;44037;55.638;37.356;2023-08-12T05:07:54;19.30;;;13.45;;
58238;SDS011;44037;55.638;37.356;2023-08-12T05:10:21;15.68;;;12.60;;
58238;SDS011;44037;55.638;37.356;2023-08-12T05:12:48;17.38;;;12.88;;
58238;SDS011;44037;55.638;37.356;2023-08-12T05:15:17;12.57;;;11.25;;
58238;SDS011;44037;55.638;37.356;2023-08-12T05:17:44;17.90;;;12.30;;
58238;SDS011;44037;55.638;37.356;2023-08-12T05:20:11;17.05;;;11.52;;
58238;SDS011;44037;55.638;37.356;2023-08-12T05:22:40;20.98;;;13.43;;
58238;SDS011;44037;55.638;37.356;2023-08-12T05:25:07;18.30;;;12.18;;
58238;SDS011;44037;55.638;37.356;2023-08-12T05:27:34;15.07;;;12.07;;
58238;SDS011;44037;55.638;37.356;2023-08-12T05:30:02;16.35;;;12.50;;
58238;SDS011;44037;55.638;37.356;2023-08-12T05:32:30;19.15;;;13.38;;
58238;SDS011;44037;55.638;37.356;2023-08-12T05:34:57;16.67;;;11.90;;
58238;SDS011;44037;55.638;37.356;2023-08-12T05:37:24;20.05;;;12.13;;
58238;SDS011;44037;55.638;37.356;2023-08-12T05:39:52;14.68;;;11.40;;
58238;SDS011;44037;55.638;37.356;2023-08-12T05:42:19;15.85;;;12.05;;
58238;SDS011;44037;55.638;37.356;2023-08-12T05:44:48;12.75;;;11.25;;
58238;SDS011;44037;55.638;37.356;2023-08-12T05:47:30;12.05;;;10.52;;
58238;SDS011;44037;55.638;37.356;2023-08-12T05:49:58;13.95;;;10.68;;
58238;SDS011;44037;55.638;37.356;2023-08-12T05:52:28;11.77;;;10.15;;
58238;SDS011;44037;55.638;37.356;2023-08-12T05:54:56;13.40;;;10.20;;
58238;SDS011;44037;55.638;37.356;2023-08-12T05:57:23;13.20;;;10.43;;
58238;SDS011;44037;55.638;37.356;2023-08-12T05:59:58;13.90;;;10.77;;
58238;SDS011;44037;55.638;37.356;2023-08-12T06:02:26;11.18;;;10.02;;
58238;SDS011;44037;55.638;37.356;2023-08-12T06:04:53;14.90;;;9.80;;
58238;SDS011;44037;55.638;37.356;2023-08-12T06:07:20;14.27;;;10.60;;
58238;SDS011;44037;55.638;37.356;2023-08-12T06:09:48;16.30;;;10.45;;
58238;SDS011;44037;55.638;37.356;2023-08-12T06:12:17;16.63;;;10.40;;
58238;SDS011;44037;55.638;37.356;2023-08-12T06:14:47;16.65;;;10.48;;
58238;SDS011;44037;55.638;37.356;2023-08-12T06:17:14;14.60;;;9.98;;
58238;SDS011;44037;55.638;37.356;2023-08-12T06:19:41;12.27;;;9.73;;
58238;SDS011;44037;55.638;37.356;2023-08-12T06:22:10;12.68;;;10.00;;
58238;SDS011;44037;55.638;37.356;2023-08-12T06:24:37;15.15;;;10.95;;
58238;SDS011;44037;55.638;37.356;2023-08-12T06:27:04;15.43;;;9.88;;
58238;SDS011;44037;55.638;37.356;2023-08-12T06:29:33;14.40;;;9.77;;
58238;SDS011;44037;55.638;37.356;2023-08-12T06:32:00;15.98;;;10.27;;
58238;SDS011;44037;55.638;37.356;2023-08-12T06:34:27;13.95;;;10.05;;
58238;SDS011;44037;55.638;37.356;2023-08-12T06:36:54;18.00;;;10.77;;
58238;SDS011;44037;55.638;37.356;2023-08-12T06:39:21;16.08;;;10.40;;
58238;SDS011;44037;55.638;37.356;2023-08-12T06:41:49;16.55;;;10.75;;
58238;SDS011;44037;55.638;37.356;2023-08-12T06:44:19;15.77;;;11.07;;
58238;SDS011;44037;55.638;37.356;2023-08-12T06:46:47;17.50;;;10.73;;
58238;SDS011;44037;55.638;37.356;2023-08-12T06:49:14;13.73;;;10.02;;
58238;SDS011;44037;55.638;37.356;2023-08-12T06:51:42;14.75;;;10.55;;
58238;SDS011;44037;55.638;37.356;2023-08-12T06:54:09;13.73;;;10.27;;
58238;SDS011;44037;55.638;37.356;2023-08-12T06:56:36;16.80;;;10.77;;
58238;SDS011;44037;55.638;37.356;2023-08-12T06:59:03;16.30;;;10.52;;
58238;SDS011;44037;55.638;37.356;2023-08-12T07:01:30;13.95;;;10.70;;
58238;SDS011;44037;55.638;37.356;2023-08-12T07:03:58;16.35;;;10.23;;
58238;SDS011;44037;55.638;37.356;2023-08-12T07:06:25;13.15;;;10.13;;
58238;SDS011;44037;55.638;37.356;2023-08-12T07:08:53;12.40;;;10.27;;
58238;SDS011;44037;55.638;37.356;2023-08-12T07:11:21;15.20;;;10.80;;
58238;SDS011;44037;55.638;37.356;2023-08-12T07:13:48;15.77;;;11.10;;
58238;SDS011;44037;55.638;37.356;2023-08-12T07:16:15;13.02;;;9.52;;
58238;SDS011;44037;55.638;37.356;2023-08-12T07:18:42;14.15;;;9.95;;
58238;SDS011;44037;55.638;37.356;2023-08-12T07:21:11;13.38;;;10.00;;
58238;SDS011;44037;55.638;37.356;2023-08-12T07:23:38;13.60;;;10.00;;
58238;SDS011;44037;55.638;37.356;2023-08-12T07:26:05;15.88;;;10.82;;
58238;SDS011;44037;55.638;37.356;2023-08-12T07:28:32;17.95;;;10.65;;
58238;SDS011;44037;55.638;37.356;2023-08-12T07:31:00;13.88;;;10.25;;
58238;SDS011;44037;55.638;37.356;2023-08-12T07:33:27;17.25;;;12.25;;
58238;SDS011;44037;55.638;37.356;2023-08-12T07:35:54;14.65;;;10.18;;
58238;SDS011;44037;55.638;37.356;2023-08-12T07:38:22;14.68;;;10.40;;
58238;SDS011;44037;55.638;37.356;2023-08-12T07:40:49;13.10;;;9.88;;
58238;SDS011;44037;55.638;37.356;2023-08-12T07:43:17;17.23;;;11.70;;
58238;SDS011;44037;55.638;37.356;2023-08-12T07:45:44;13.77;;;11.27;;
58238;SDS011;44037;55.638;37.356;2023-08-12T07:48:11;14.40;;;10.43;;
58238;SDS011;44037;55.638;37.356;2023-08-12T07:50:38;13.65;;;11.32;;
58238;SDS011;44037;55.638;37.356;2023-08-12T07:53:05;15.82;;;10.82;;
58238;SDS011;44037;55.638;37.356;2023-08-12T07:55:33;12.23;;;9.23;;
58238;SDS011;44037;55.638;37.356;2023-08-12T07:58:01;14.68;;;10.93;;
58238;SDS011;44037;55.638;37.356;2023-08-12T08:00:29;14.25;;;10.52;;
58238;SDS011;44037;55.638;37.356;2023-08-12T08:02:56;17.05;;;10.85;;
58238;SDS011;44037;55.638;37.356;2023-08-12T08:05:23;14.45;;;9.73;;
58238;SDS011;44037;55.638;37.356;2023-08-12T08:07:50;16.08;;;10.68;;
58238;SDS011;44037;55.638;37.356;2023-08-12T08:10:17;16.90;;;9.88;;
58238;SDS011;44037;55.638;37.356;2023-08-12T08:12:46;15.25;;;10.30;;
58238;SDS011;44037;55.638;37.356;2023-08-12T08:15:13;15.38;;;10.48;;
58238;SDS011;44037;55.638;37.356;2023-08-12T08:17:40;15.57;;;12.10;;
58238;SDS011;44037;55.638;37.356;2023-08-12T08:20:08;13.77;;;10.65;;
58238;SDS011;44037;55.638;37.356;2023-08-12T08:22:36;22.27;;;12.30;;
58238;SDS011;44037;55.638;37.356;2023-08-12T08:25:05;11.98;;;10.52;;
58238;SDS011;44037;55.638;37.356;2023-08-12T08:42:16;15.35;;;12.27;;
58238;SDS011;44037;55.638;37.356;2023-08-12T08:44:47;18.70;;;12.85;;
58238;SDS011;44037;55.638;37.356;2023-08-12T08:47:19;18.20;;;16.23;;
58238;SDS011;44037;55.638;37.356;2023-08-12T08:49:51;19.38;;;11.77;;
58238;SDS011;44037;55.638;37.356;2023-08-12T08:52:19;14.80;;;11.85;;
58238;SDS011;44037;55.638;37.356;2023-08-12T08:54:47;16.13;;;12.85;;
58238;SDS011;44037;55.638;37.356;2023-08-12T08:57:15;15.85;;;13.38;;
58238;SDS011;44037;55.638;37.356;2023-08-12T08:59:43;26.10;;;15.48;;
58238;SDS011;44037;55.638;37.356;2023-08-12T09:02:11;17.85;;;14.75;;
58238;SDS011;44037;55.638;37.356;2023-08-12T09:04:42;21.35;;;13.90;;
58238;SDS011;44037;55.638;37.356;2023-08-12T09:07:10;17.98;;;12.55;;
58238;SDS011;44037;55.638;37.356;2023-08-12T09:09:39;19.45;;;12.65;;
58238;SDS011;44037;55.638;37.356;2023-08-12T09:12:08;14.73;;;12.38;;
58238;SDS011;44037;55.638;37.356;2023-08-12T09:14:39;16.48;;;12.25;;
58238;SDS011;44037;55.638;37.356;2023-08-12T09:17:06;15.02;;;12.57;;
58238;SDS011;44037;55.638;37.356;2023-08-12T09:19:33;19.88;;;12.68;;
58238;SDS011;44037;55.638;37.356;2023-08-12T09:22:02;18.02;;;13.00;;
58238;SDS011;44037;55.638;37.356;2023-08-12T09:24:29;15.50;;;12.07;;
58238;SDS011;44037;55.638;37.356;2023-08-12T09:26:56;17.00;;;13.02;;
58238;SDS011;44037;55.638;37.356;2023-08-12T09:29:24;13.85;;;12.25;;
58238;SDS011;44037;55.638;37.356;2023-08-12T09:32:06;21.25;;;12.73;;
58238;SDS011;44037;55.638;37.356;2023-08-12T09:34:36;15.05;;;12.73;;
58238;SDS011;44037;55.638;37.356;2023-08-12T09:37:03;15.05;;;12.30;;
58238;SDS011;44037;55.638;37.356;2023-08-12T09:39:30;17.65;;;11.88;;
58238;SDS011;44037;55.638;37.356;2023-08-12T09:41:59;16.55;;;11.57;;
58238;SDS011;44037;55.638;37.356;2023-08-12T09:44:26;16.48;;;11.90;;
58238;SDS011;44037;55.638;37.356;2023-08-12T09:46:56;17.88;;;12.15;;
58238;SDS011;44037;55.638;37.356;2023-08-12T09:49:25;14.65;;;11.57;;
58238;SDS011;44037;55.638;37.356;2023-08-12T09:51:53;15.25;;;12.57;;
58238;SDS011;44037;55.638;37.356;2023-08-12T09:54:20;18.15;;;12.15;;
58238;SDS011;44037;55.638;37.356;2023-08-12T09:56:51;19.05;;;12.82;;
58238;SDS011;44037;55.638;37.356;2023-08-12T09:59:22;17.95;;;12.80;;
58238;SDS011;44037;55.638;37.356;2023-08-12T10:40:19;20.42;;;14.95;;
58238;SDS011;44037;55.638;37.356;2023-08-12T10:42:47;18.15;;;14.27;;
58238;SDS011;44037;55.638;37.356;2023-08-12T10:45:16;18.77;;;15.13;;
58238;SDS011;44037;55.638;37.356;2023-08-12T10:47:48;19.30;;;15.10;;
58238;SDS011;44037;55.638;37.356;2023-08-12T10:50:35;17.50;;;13.88;;
58238;SDS011;44037;55.638;37.356;2023-08-12T10:53:20;15.45;;;13.88;;
58238;SDS011;44037;55.638;37.356;2023-08-12T10:55:50;19.02;;;14.18;;
58238;SDS011;44037;55.638;37.356;2023-08-12T10:58:24;17.08;;;12.88;;
58238;SDS011;44037;55.638;37.356;2023-08-12T11:00:53;19.55;;;13.20;;
58238;SDS011;44037;55.638;37.356;2023-08-12T11:03:21;20.02;;;13.77;;
58238;SDS011;44037;55.638;37.356;2023-08-12T11:05:48;16.52;;;13.63;;
58238;SDS011;44037;55.638;37.356;2023-08-12T11:08:16;18.00;;;13.40;;
58238;SDS011;44037;55.638;37.356;2023-08-12T11:10:43;20.52;;;14.65;;
58238;SDS011;44037;55.638;37.356;2023-08-12T11:13:12;16.98;;;13.55;;
58238;SDS011;44037;55.638;37.356;2023-08-12T11:15:41;17.73;;;13.30;;
58238;SDS011;44037;55.638;37.356;2023-08-12T11:18:12;18.35;;;13.82;;
58238;SDS011;44037;55.638;37.356;2023-08-12T11:20:41;18.73;;;13.85;;
58238;SDS011;44037;55.638;37.356;2023-08-12T11:23:09;18.50;;;12.68;;
58238;SDS011;44037;55.638;37.356;2023-08-12T11:25:37;15.20;;;12.20;;
58238;SDS011;44037;55.638;37.356;2023-08-12T11:28:06;23.17;;;16.13;;
58238;SDS011;44037;55.638;37.356;2023-08-12T11:30:35;18.77;;;13.20;;
58238;SDS011;44037;55.638;37.356;2023-08-12T11:33:02;22.00;;;14.60;;
58238;SDS011;44037;55.638;37.356;2023-08-12T11:35:30;26.10;;;16.45;;
58238;SDS011;44037;55.638;37.356;2023-08-12T11:37:57;19.60;;;13.50;;
58238;SDS011;44037;55.638;37.356;2023-08-12T11:40:26;21.08;;;15.32;;
58238;SDS011;44037;55.638;37.356;2023-08-12T11:42:54;22.42;;;14.40;;
58238;SDS011;44037;55.638;37.356;2023-08-12T11:45:22;18.30;;;13.88;;
58238;SDS011;44037;55.638;37.356;2023-08-12T11:47:52;18.63;;;13.18;;
58238;SDS011;44037;55.638;37.356;2023-08-12T11:50:20;22.70;;;15.52;;
58238;SDS011;44037;55.638;37.356;2023-08-12T11:52:48;18.30;;;14.63;;
58238;SDS011;44037;55.638;37.356;2023-08-12T11:55:16;18.00;;;12.82;;
58238;SDS011;44037;55.638;37.356;2023-08-12T11:57:45;15.60;;;12.70;;
58238;SDS011;44037;55.638;37.356;2023-08-12T12:00:12;19.20;;;13.60;;
58238;SDS011;44037;55.638;37.356;2023-08-12T12:02:41;18.48;;;12.95;;
58238;SDS011;44037;55.638;37.356;2023-08-12T12:05:13;31.05;;;19.10;;
58238;SDS011;44037;55.638;37.356;2023-08-12T12:07:41;24.10;;;12.38;;
58238;SDS011;44037;55.638;37.356;2023-08-12T12:10:12;19.85;;;13.68;;
58238;SDS011;44037;55.638;37.356;2023-08-12T12:12:40;16.70;;;12.05;;
58238;SDS011;44037;55.638;37.356;2023-08-12T12:15:08;17.83;;;13.73;;
58238;SDS011;44037;55.638;37.356;2023-08-12T12:17:38;19.88;;;13.70;;
58238;SDS011;44037;55.638;37.356;2023-08-12T12:20:06;17.25;;;12.40;;
58238;SDS011;44037;55.638;37.356;2023-08-12T12:22:37;19.70;;;11.98;;
58238;SDS011;44037;55.638;37.356;2023-08-12T12:25:06;19.00;;;13.75;;
58238;SDS011;44037;55.638;37.356;2023-08-12T12:27:34;17.00;;;12.73;;
58238;SDS011;44037;55.638;37.356;2023-08-12T12:30:03;15.60;;;13.05;;
58238;SDS011;44037;55.638;37.356;2023-08-12T12:32:32;13.23;;;11.35;;
58238;SDS011;44037;55.638;37.356;2023-08-12T12:34:59;15.05;;;12.02;;
58238;SDS011;44037;55.638;37.356;2023-08-12T12:37:31;21.63;;;11.80;;
58238;SDS011;44037;55.638;37.356;2023-08-12T12:39:59;17.58;;;12.30;;
58238;SDS011;44037;55.638;37.356;2023-08-12T12:42:26;20.30;;;12.80;;
58238;SDS011;44037;55.638;37.356;2023-08-12T12:44:53;18.27;;;13.63;;
58238;SDS011;44037;55.638;37.356;2023-08-12T12:47:20;14.90;;;12.35;;
58238;SDS011;44037;55.638;37.356;2023-08-12T12:49:48;14.25;;;12.18;;
58238;SDS011;44037;55.638;37.356;2023-08-12T12:52:15;17.95;;;11.40;;
58238;SDS011;44037;55.638;37.356;2023-08-12T12:54:42;16.63;;;11.73;;
58238;SDS011;44037;55.638;37.356;2023-08-12T12:57:10;17.13;;;12.23;;
58238;SDS011;44037;55.638;37.356;2023-08-12T12:59:37;17.35;;;11.75;;
58238;SDS011;44037;55.638;37.356;2023-08-12T13:02:04;15.68;;;11.32;;
58238;SDS011;44037;55.638;37.356;2023-08-12T13:04:31;17.50;;;12.80;;
58238;SDS011;44037;55.638;37.356;2023-08-12T13:06:58;16.27;;;12.13;;
58238;SDS011;44037;55.638;37.356;2023-08-12T13:09:25;16.80;;;12.55;;
58238;SDS011;44037;55.638;37.356;2023-08-12T13:11:52;14.13;;;11.52;;
58238;SDS011;44037;55.638;37.356;2023-08-12T13:14:23;18.70;;;12.02;;
58238;SDS011;44037;55.638;37.356;2023-08-12T13:16:50;17.55;;;11.80;;
58238;SDS011;44037;55.638;37.356;2023-08-12T13:19:17;20.33;;;12.07;;
58238;SDS011;44037;55.638;37.356;2023-08-12T13:21:44;18.90;;;12.57;;
58238;SDS011;44037;55.638;37.356;2023-08-12T13:24:11;15.15;;;11.48;;
58238;SDS011;44037;55.638;37.356;2023-08-12T13:26:38;14.25;;;11.38;;
58238;SDS011;44037;55.638;37.356;2023-08-12T13:29:06;17.17;;;10.93;;
58238;SDS011;44037;55.638;37.356;2023-08-12T13:31:34;13.35;;;11.13;;
58238;SDS011;44037;55.638;37.356;2023-08-12T13:34:01;15.65;;;11.15;;
58238;SDS011;44037;55.638;37.356;2023-08-12T13:36:28;12.98;;;10.43;;
58238;SDS011;44037;55.638;37.356;2023-08-12T13:38:55;14.73;;;11.45;;
58238;SDS011;44037;55.638;37.356;2023-08-12T13:41:22;13.55;;;9.85;;
58238;SDS011;44037;55.638;37.356;2023-08-12T13:43:49;14.57;;;11.30;;
58238;SDS011;44037;55.638;37.356;2023-08-12T13:46:16;13.30;;;10.50;;
58238;SDS011;44037;55.638;37.356;2023-08-12T13:48:45;13.23;;;10.82;;
58238;SDS011;44037;55.638;37.356;2023-08-12T13:51:12;13.20;;;9.80;;
58238;SDS011;44037;55.638;37.356;2023-08-12T13:53:39;16.45;;;11.75;;
58238;SDS011;44037;55.638;37.356;2023-08-12T13:56:06;16.05;;;12.23;;
58238;SDS011;44037;55.638;37.356;2023-08-12T13:58:33;14.65;;;10.30;;
58238;SDS011;44037;55.638;37.356;2023-08-12T14:01:00;15.32;;;11.73;;
58238;SDS011;44037;55.638;37.356;2023-08-12T14:03:27;14.45;;;11.00;;
58238;SDS011;44037;55.638;37.356;2023-08-12T14:05:57;11.02;;;9.55;;
58238;SDS011;44037;55.638;37.356;2023-08-12T14:08:24;13.85;;;10.90;;
58238;SDS011;44037;55.638;37.356;2023-08-12T14:10:51;14.82;;;10.70;;
58238;SDS011;44037;55.638;37.356;2023-08-12T14:13:18;16.27;;;12.30;;
58238;SDS011;44037;55.638;37.356;2023-08-12T14:15:45;15.32;;;12.43;;
58238;SDS011;44037;55.638;37.356;2023-08-12T14:18:12;16.15;;;11.60;;
58238;SDS011;44037;55.638;37.356;2023-08-12T14:20:39;18.13;;;11.90;;
58238;SDS011;44037;55.638;37.356;2023-08-12T14:23:08;19.50;;;14.30;;
58238;SDS011;44037;55.638;37.356;2023-08-12T14:25:35;18.52;;;12.50;;
58238;SDS011;44037;55.638;37.356;2023-08-12T14:28:02;21.77;;;13.43;;
58238;SDS011;44037;55.638;37.356;2023-08-12T14:30:29;22.60;;;12.50;;
58238;SDS011;44037;55.638;37.356;2023-08-12T14:32:56;18.50;;;12.38;;
58238;SDS011;44037;55.638;37.356;2023-08-12T14:35:24;17.63;;;12.82;;
58238;SDS011;44037;55.638;37.356;2023-08-12T14:37:51;16.27;;;12.80;;
58238;SDS011;44037;55.638;37.356;2023-08-12T14:40:19;21.52;;;13.13;;
58238;SDS011;44037;55.638;37.356;2023-08-12T14:42:47;21.10;;;12.02;;
58238;SDS011;44037;55.638;37.356;2023-08-12T14:45:14;17.00;;;11.73;;
58238;SDS011;44037;55.638;37.356;2023-08-12T14:47:41;19.33;;;13.25;;
58238;SDS011;44037;55.638;37.356;2023-08-12T14:50:08;16.27;;;12.80;;
58238;SDS011;44037;55.638;37.356;2023-08-12T14:52:35;25.95;;;14.60;;
58238;SDS011;44037;55.638;37.356;2023-08-12T14:55:02;17.33;;;12.23;;
58238;SDS011;44037;55.638;37.356;2023-08-12T14:57:31;15.77;;;12.55;;
58238;SDS011;44037;55.638;37.356;2023-08-12T14:59:58;16.23;;;11.85;;
58238;SDS011;44037;55.638;37.356;2023-08-12T15:02:25;15.15;;;11.68;;
58238;SDS011;44037;55.638;37.356;2023-08-12T15:04:53;16.95;;;12.43;;
58238;SDS011;44037;55.638;37.356;2023-08-12T15:07:20;17.42;;;12.05;;